Orbital elements of COSMOS 1305
| Launched | 10 September 1981 |
| Flight ended | – |
| Launch site | Plesetsk Missile and Space Complex, Russia |
| Owner | Commonwealth of Independent States (former USSR) |
| NORAD ID | 12818 |
| Date fetched |
Epoch osculation |
Inc. [°] |
Ecc. | RA asc node [hr] |
Arg Peri. [°] |
Mean anom [°] |
Mean motion [rev/day] |
Abs. mag |
| Date fetched |
Epoch osculation |
Inc. [°] |
Ecc. | RA asc node [hr] |
Arg Peri. [°] |
Mean anom [°] |
Mean motion [rev/day] |
Abs. mag |
| 2026 May 08 17:57 | 2026 May 04 00:13:41 | 62.7915 | 0.49026 | 1.1039 | 269.6752 | 36.4364 | 5.46279 | 6.243 |
| 2026 May 07 17:58 | 2026 May 04 00:13:41 | 62.7915 | 0.49026 | 1.1039 | 269.6752 | 36.4364 | 5.46279 | 6.243 |
| 2026 May 06 17:57 | 2026 May 04 00:13:41 | 62.7915 | 0.49026 | 1.1039 | 269.6752 | 36.4364 | 5.46279 | 6.243 |
| 2026 May 05 17:57 | 2026 May 04 00:13:41 | 62.7915 | 0.49026 | 1.1039 | 269.6752 | 36.4364 | 5.46279 | 6.243 |
| 2026 May 04 17:57 | 2026 Apr 29 23:34:30 | 62.7906 | 0.49026 | 1.2533 | 269.5601 | 36.4364 | 5.46279 | 6.243 |
| 2026 May 03 17:57 | 2026 Apr 29 23:34:30 | 62.7906 | 0.49026 | 1.2533 | 269.5601 | 36.4364 | 5.46279 | 6.243 |
| 2026 May 02 17:57 | 2026 Apr 29 23:34:30 | 62.7906 | 0.49026 | 1.2533 | 269.5601 | 36.4364 | 5.46279 | 6.243 |
| 2026 May 01 17:56 | 2026 Apr 29 23:34:30 | 62.7906 | 0.49026 | 1.2533 | 269.5601 | 36.4364 | 5.46279 | 6.243 |
| 2026 Apr 30 17:56 | 2026 Apr 29 23:34:30 | 62.7906 | 0.49026 | 1.2533 | 269.5601 | 36.4364 | 5.46279 | 6.243 |
| 2026 Apr 29 17:57 | 2026 Apr 24 02:59:20 | 62.7895 | 0.49024 | 1.4705 | 269.3909 | 36.4364 | 5.46279 | 6.243 |
| 2026 Apr 28 17:56 | 2026 Apr 24 02:59:20 | 62.7895 | 0.49024 | 1.4705 | 269.3909 | 36.4364 | 5.46279 | 6.243 |
| 2026 Apr 27 17:58 | 2026 Apr 24 02:59:20 | 62.7895 | 0.49024 | 1.4705 | 269.3909 | 36.4364 | 5.46279 | 6.243 |
| 2026 Apr 26 17:58 | 2026 Apr 24 02:59:20 | 62.7895 | 0.49024 | 1.4705 | 269.3909 | 36.4364 | 5.46279 | 6.243 |
| 2026 Apr 25 17:58 | 2026 Apr 24 02:59:20 | 62.7895 | 0.49024 | 1.4705 | 269.3909 | 36.4364 | 5.46279 | 6.243 |
| 2026 Apr 24 17:59 | 2026 Apr 24 02:59:20 | 62.7895 | 0.49024 | 1.4705 | 269.3909 | 36.4364 | 5.46279 | 6.243 |
| 2026 Apr 23 17:57 | 2026 Apr 18 02:00:34 | 62.7887 | 0.49022 | 1.6946 | 269.2164 | 36.4364 | 5.46279 | 6.243 |
| 2026 Apr 22 17:57 | 2026 Apr 18 02:00:34 | 62.7887 | 0.49022 | 1.6946 | 269.2164 | 36.4364 | 5.46279 | 6.243 |
| 2026 Apr 21 17:57 | 2026 Apr 18 02:00:34 | 62.7887 | 0.49022 | 1.6946 | 269.2164 | 36.4364 | 5.46279 | 6.243 |
| 2026 Apr 20 17:57 | 2026 Apr 18 02:00:34 | 62.7887 | 0.49022 | 1.6946 | 269.2164 | 36.4364 | 5.46279 | 6.243 |
| 2026 Apr 19 17:58 | 2026 Apr 18 02:00:34 | 62.7887 | 0.49022 | 1.6946 | 269.2164 | 36.4364 | 5.46279 | 6.243 |
| 2026 Apr 18 17:56 | 2026 Apr 13 03:23:24 | 62.7882 | 0.49018 | 1.8778 | 269.0731 | 36.4364 | 5.46279 | 6.243 |
| 2026 Apr 16 17:57 | 2026 Apr 13 03:23:24 | 62.7882 | 0.49018 | 1.8778 | 269.0731 | 36.4364 | 5.46279 | 6.243 |
| 2026 Apr 14 17:57 | 2026 Apr 13 03:23:24 | 62.7882 | 0.49018 | 1.8778 | 269.0731 | 36.4364 | 5.46279 | 6.243 |
| 2026 Apr 13 17:57 | 2026 Apr 13 03:23:24 | 62.7882 | 0.49018 | 1.8778 | 269.0731 | 36.4364 | 5.46279 | 6.243 |
| 2026 Apr 12 17:57 | 2026 Apr 07 02:24:38 | 62.7877 | 0.49014 | 2.1017 | 268.8999 | 36.4364 | 5.46279 | 6.243 |
| 2026 Apr 11 17:57 | 2026 Apr 07 02:24:38 | 62.7877 | 0.49014 | 2.1017 | 268.8999 | 36.4364 | 5.46279 | 6.243 |